createdAt,value
2022-07-29T00:02:16.132Z,19.56
2022-07-29T00:04:42.762Z,19.42
2022-07-29T00:07:09.556Z,19.35
2022-07-29T00:09:50.394Z,19.32
2022-07-29T00:12:25.602Z,19.31
2022-07-29T00:14:57.229Z,19.18
2022-07-29T00:17:25.146Z,19.10
2022-07-29T00:19:52.139Z,19.33
2022-07-29T00:22:19.757Z,19.49
2022-07-29T00:24:48.682Z,19.67
2022-07-29T00:27:15.262Z,19.56
2022-07-29T00:29:41.786Z,19.44
2022-07-29T00:32:08.324Z,19.58
2022-07-29T00:34:53.615Z,19.59
2022-07-29T00:37:20.189Z,19.64
2022-07-29T00:39:46.770Z,19.76
2022-07-29T00:42:13.365Z,19.78
2022-07-29T00:44:41.243Z,19.77
2022-07-29T00:47:09.177Z,19.76
2022-07-29T00:49:36.088Z,19.76
2022-07-29T00:52:04.943Z,19.74
2022-07-29T00:54:31.699Z,19.83
2022-07-29T00:56:59.871Z,19.90
2022-07-29T00:59:35.080Z,19.74
2022-07-29T01:02:03.867Z,19.85
2022-07-29T01:04:31.896Z,19.72
2022-07-29T01:06:59.594Z,19.68
2022-07-29T01:09:42.753Z,19.67
2022-07-29T01:12:23.972Z,19.73
2022-07-29T01:14:51.618Z,19.92
2022-07-29T01:17:29.613Z,20.00
2022-07-29T01:20:13.626Z,20.08
2022-07-29T01:23:01.444Z,20.12
2022-07-29T01:25:55.790Z,20.14
2022-07-29T01:28:41.271Z,20.13
2022-07-29T01:31:12.430Z,20.19
2022-07-29T01:33:56.082Z,20.32
2022-07-29T01:36:33.264Z,20.47
2022-07-29T01:39:12.869Z,20.57
2022-07-29T01:41:50.542Z,20.34
2022-07-29T01:44:27.724Z,20.29
2022-07-29T01:46:58.963Z,20.26
2022-07-29T01:49:32.505Z,20.34
2022-07-29T01:52:06.859Z,20.39
2022-07-29T01:54:39.462Z,20.31
2022-07-29T01:57:09.148Z,20.26
2022-07-29T01:59:37.131Z,20.22
2022-07-29T02:02:07.223Z,20.29
2022-07-29T02:04:36.752Z,20.17
2022-07-29T02:07:06.116Z,20.15
2022-07-29T02:09:35.640Z,20.11
2022-07-29T02:12:04.102Z,20.04
2022-07-29T02:14:34.990Z,19.97
2022-07-29T02:17:03.770Z,19.91
2022-07-29T02:19:33.190Z,19.83
2022-07-29T02:22:02.077Z,19.77
2022-07-29T02:24:30.678Z,19.69
2022-07-29T02:27:00.118Z,19.65
2022-07-29T02:29:29.366Z,19.67
2022-07-29T02:32:00.543Z,19.61
2022-07-29T02:34:27.988Z,19.59
2022-07-29T02:36:56.295Z,19.59
2022-07-29T02:39:24.293Z,19.52
2022-07-29T02:42:00.821Z,19.59
2022-07-29T02:44:32.637Z,19.67
2022-07-29T02:47:20.000Z,19.60
2022-07-29T02:49:55.255Z,19.76
2022-07-29T02:52:43.108Z,19.74
2022-07-29T02:55:21.610Z,19.69
2022-07-29T02:57:54.431Z,19.62
2022-07-29T03:00:24.679Z,19.67
2022-07-29T03:02:54.584Z,19.57
2022-07-29T03:05:23.336Z,19.41
2022-07-29T03:07:57.319Z,19.35
2022-07-29T03:10:26.014Z,19.32
2022-07-29T03:12:53.055Z,19.07
2022-07-29T03:15:20.071Z,18.91
2022-07-29T03:17:47.255Z,18.72
2022-07-29T03:20:14.267Z,18.65
2022-07-29T03:22:47.933Z,18.62
2022-07-29T03:25:16.583Z,18.58
2022-07-29T03:27:44.216Z,18.89
2022-07-29T03:30:12.407Z,18.59
2022-07-29T03:32:45.018Z,18.54
2022-07-29T03:35:11.707Z,18.64
2022-07-29T03:37:38.433Z,18.50
2022-07-29T03:40:09.570Z,18.54
2022-07-29T03:42:38.626Z,18.39
2022-07-29T03:45:08.787Z,18.44
2022-07-29T03:47:51.025Z,18.47
2022-07-29T03:50:21.078Z,18.47
2022-07-29T03:52:48.939Z,18.31
2022-07-29T03:55:16.409Z,18.35
2022-07-29T03:57:45.310Z,18.36
2022-07-29T04:00:12.783Z,18.26
2022-07-29T04:02:40.237Z,18.38
2022-07-29T04:05:12.995Z,18.32
2022-07-29T04:07:39.635Z,18.19
2022-07-29T04:10:06.886Z,18.20
2022-07-29T04:12:33.489Z,18.23
2022-07-29T04:15:00.098Z,18.17
2022-07-29T04:17:26.600Z,18.07
2022-07-29T04:19:53.143Z,17.84
2022-07-29T04:22:19.646Z,17.86
2022-07-29T04:24:46.203Z,17.69
2022-07-29T04:27:12.814Z,17.69
2022-07-29T04:29:56.013Z,17.75
2022-07-29T04:32:25.107Z,17.64
2022-07-29T04:34:52.195Z,17.65
2022-07-29T04:37:18.748Z,17.82
2022-07-29T04:39:45.270Z,17.70
2022-07-29T04:42:11.930Z,17.85
2022-07-29T04:44:39.901Z,17.80
2022-07-29T04:47:10.091Z,17.72
2022-07-29T04:49:39.335Z,17.77
2022-07-29T04:52:06.999Z,17.82
2022-07-29T04:54:33.991Z,17.73
2022-07-29T04:57:00.508Z,17.57
2022-07-29T04:59:27.588Z,17.54
2022-07-29T05:01:54.148Z,17.67
2022-07-29T05:04:21.042Z,17.93
2022-07-29T05:06:47.783Z,18.84
2022-07-29T05:09:14.345Z,20.04
2022-07-29T05:11:44.014Z,21.22
2022-07-29T05:14:10.712Z,21.66
2022-07-29T05:16:37.309Z,21.44
2022-07-29T05:19:03.888Z,21.76
2022-07-29T05:21:30.461Z,22.61
2022-07-29T05:23:57.049Z,22.06
2022-07-29T05:26:23.596Z,21.92
2022-07-29T05:29:08.678Z,21.71
2022-07-29T05:31:55.174Z,21.85
2022-07-29T05:34:21.796Z,22.45
2022-07-29T05:36:48.334Z,22.04
2022-07-29T05:39:14.973Z,22.59
2022-07-29T05:41:41.555Z,22.61
2022-07-29T05:44:08.448Z,22.67
2022-07-29T05:46:35.100Z,23.16
2022-07-29T05:49:02.119Z,23.20
2022-07-29T05:51:28.664Z,24.11
2022-07-29T05:53:55.255Z,24.02
2022-07-29T05:56:21.767Z,24.34
2022-07-29T05:58:48.403Z,24.11
2022-07-29T06:01:15.092Z,24.46
2022-07-29T06:03:42.403Z,24.38
2022-07-29T06:06:09.071Z,25.28
2022-07-29T06:08:37.176Z,24.95
2022-07-29T06:11:05.122Z,25.18
2022-07-29T06:13:32.311Z,24.43
2022-07-29T06:15:59.148Z,24.49
2022-07-29T06:18:26.056Z,24.51
2022-07-29T06:20:53.071Z,24.60
2022-07-29T06:23:21.361Z,24.99
2022-07-29T06:25:48.214Z,25.79
2022-07-29T06:28:14.882Z,25.68
2022-07-29T06:30:41.608Z,25.64
2022-07-29T06:33:08.168Z,26.11
2022-07-29T06:35:38.797Z,25.12
2022-07-29T06:38:31.816Z,24.97
2022-07-29T06:41:01.741Z,26.21
2022-07-29T06:43:34.744Z,24.84
2022-07-29T06:46:04.111Z,25.42
2022-07-29T06:48:31.342Z,26.27
2022-07-29T06:50:58.398Z,26.38
2022-07-29T06:53:25.000Z,26.93
2022-07-29T06:55:51.656Z,26.51
2022-07-29T06:58:21.140Z,26.85
2022-07-29T07:00:48.778Z,26.59
2022-07-29T07:03:16.520Z,26.79
2022-07-29T07:05:43.671Z,27.96
2022-07-29T07:08:10.232Z,28.11
2022-07-29T07:10:37.070Z,27.86
2022-07-29T07:13:05.211Z,28.66
2022-07-29T07:15:39.018Z,28.81
2022-07-29T07:18:06.933Z,28.36
2022-07-29T07:20:34.907Z,29.41
2022-07-29T07:23:01.840Z,29.25
2022-07-29T07:25:28.559Z,28.39
2022-07-29T07:27:55.524Z,28.52
2022-07-29T07:30:22.451Z,29.32
2022-07-29T07:32:49.182Z,28.81
2022-07-29T07:35:16.002Z,28.94
2022-07-29T07:37:42.759Z,28.58
2022-07-29T07:40:12.594Z,30.49
2022-07-29T07:42:45.567Z,29.33
2022-07-29T07:45:14.106Z,30.67
2022-07-29T07:47:43.429Z,30.88
2022-07-29T07:50:17.977Z,30.80
2022-07-29T07:52:58.435Z,30.47
2022-07-29T07:55:25.976Z,30.23
2022-07-29T07:57:52.749Z,30.66
2022-07-29T08:00:19.460Z,30.04
2022-07-29T08:02:49.614Z,31.81
2022-07-29T08:05:19.762Z,32.64
2022-07-29T08:07:47.758Z,34.40
2022-07-29T08:10:16.067Z,31.49
2022-07-29T08:12:44.418Z,32.55
2022-07-29T08:15:11.045Z,31.24
2022-07-29T08:17:37.735Z,30.73
2022-07-29T08:20:04.885Z,31.09
2022-07-29T08:22:31.462Z,35.76
2022-07-29T08:24:58.074Z,33.61
2022-07-29T08:27:42.851Z,36.72
2022-07-29T08:30:11.011Z,37.79
2022-07-29T08:32:53.169Z,33.03
2022-07-29T08:35:22.205Z,34.32
2022-07-29T08:37:49.032Z,35.56
2022-07-29T08:40:15.802Z,37.02
2022-07-29T08:42:42.651Z,34.21
2022-07-29T08:45:10.296Z,35.68
2022-07-29T08:47:40.419Z,34.81
2022-07-29T08:50:08.810Z,31.85
2022-07-29T08:52:38.184Z,33.34
2022-07-29T08:55:07.088Z,35.63
2022-07-29T08:57:34.336Z,34.90
2022-07-29T09:00:08.168Z,34.82
2022-07-29T09:02:46.810Z,35.38
2022-07-29T09:05:14.837Z,36.06
2022-07-29T09:07:44.124Z,34.19
2022-07-29T09:10:11.115Z,34.16
2022-07-29T09:12:38.343Z,35.59
2022-07-29T09:15:05.831Z,36.44
2022-07-29T09:17:50.298Z,34.79
2022-07-29T09:20:20.127Z,34.74
2022-07-29T09:22:50.466Z,33.99
2022-07-29T09:25:52.645Z,36.56
2022-07-29T09:28:19.488Z,34.14
2022-07-29T09:30:59.080Z,34.38
2022-07-29T09:33:35.348Z,39.93
2022-07-29T09:36:06.925Z,39.21
2022-07-29T09:38:34.389Z,38.23
2022-07-29T09:41:05.733Z,36.36
2022-07-29T09:43:33.331Z,34.82
2022-07-29T09:46:12.690Z,34.92
2022-07-29T09:49:02.904Z,34.71
2022-07-29T09:51:38.035Z,36.36
2022-07-29T09:54:25.100Z,35.30
2022-07-29T09:56:51.735Z,39.66
2022-07-29T09:59:18.732Z,40.98
2022-07-29T10:01:45.462Z,42.54
2022-07-29T10:04:12.198Z,43.46
2022-07-29T10:07:04.736Z,39.40
2022-07-29T10:09:33.348Z,38.28
2022-07-29T10:12:16.570Z,36.11
2022-07-29T10:14:43.689Z,35.52
2022-07-29T10:17:11.469Z,36.51
2022-07-29T10:19:39.343Z,34.87
2022-07-29T10:22:09.384Z,33.88
2022-07-29T10:24:38.269Z,35.07
2022-07-29T10:27:06.845Z,35.10
2022-07-29T10:29:33.944Z,37.34
2022-07-29T10:32:12.640Z,37.69
2022-07-29T10:35:22.000Z,37.33
2022-07-29T10:38:29.530Z,37.31
2022-07-29T10:41:27.457Z,35.66
2022-07-29T10:44:05.392Z,40.36
2022-07-29T10:46:38.655Z,42.67
2022-07-29T10:49:24.759Z,43.40
2022-07-29T10:51:58.547Z,46.61
2022-07-29T10:54:38.210Z,45.20
2022-07-29T10:57:54.014Z,42.07
2022-07-29T11:00:16.924Z,38.43
2022-07-29T11:02:45.812Z,38.01
2022-07-29T11:05:18.804Z,36.99
2022-07-29T11:08:16.188Z,39.87
2022-07-29T11:10:47.988Z,38.34
2022-07-29T11:13:56.015Z,39.10
2022-07-29T11:16:24.989Z,37.33
2022-07-29T11:19:14.480Z,38.12
2022-07-29T11:21:53.393Z,39.10
2022-07-29T11:24:33.191Z,36.37
2022-07-29T11:27:13.527Z,38.40
2022-07-29T11:30:08.095Z,38.12
2022-07-29T11:32:41.022Z,38.64
2022-07-29T11:35:38.100Z,38.18
2022-07-29T11:38:31.653Z,36.79
2022-07-29T11:41:25.140Z,36.15
2022-07-29T11:43:56.710Z,36.21
2022-07-29T11:49:45.384Z,36.07
2022-07-29T11:52:15.337Z,35.65
2022-07-29T11:54:58.042Z,34.75
2022-07-29T11:57:36.329Z,35.84
2022-07-29T12:00:12.707Z,35.87
2022-07-29T12:02:48.446Z,35.11
2022-07-29T12:05:22.311Z,36.92
2022-07-29T12:08:22.784Z,39.21
2022-07-29T12:10:51.174Z,35.13
2022-07-29T12:13:20.207Z,34.08
2022-07-29T12:16:00.113Z,35.91
2022-07-29T12:18:27.807Z,37.54
2022-07-29T12:21:03.299Z,38.91
2022-07-29T12:23:34.810Z,38.95
2022-07-29T12:26:07.527Z,41.48
2022-07-29T12:28:39.532Z,42.65
2022-07-29T12:31:06.567Z,40.75
2022-07-29T12:33:36.001Z,38.31
2022-07-29T12:36:07.192Z,37.68
2022-07-29T12:38:41.173Z,40.01
2022-07-29T12:41:08.236Z,41.47
2022-07-29T12:43:34.838Z,39.74
2022-07-29T12:46:16.071Z,38.25
2022-07-29T12:48:44.424Z,38.14
2022-07-29T12:51:13.214Z,39.31
2022-07-29T12:53:40.144Z,38.98
2022-07-29T12:56:40.525Z,40.13
2022-07-29T12:59:17.049Z,39.46
2022-07-29T13:01:44.120Z,37.72
2022-07-29T13:04:10.789Z,35.24
2022-07-29T13:06:45.944Z,36.05
2022-07-29T13:09:25.794Z,38.73
2022-07-29T13:11:54.222Z,39.56
2022-07-29T13:14:41.151Z,41.58
2022-07-29T13:17:11.575Z,42.75
2022-07-29T13:19:50.488Z,41.21
2022-07-29T13:22:19.154Z,40.91
2022-07-29T13:24:50.130Z,39.99
2022-07-29T13:27:21.787Z,41.59
2022-07-29T13:29:49.679Z,42.49
2022-07-29T13:32:16.294Z,38.17
2022-07-29T13:34:42.901Z,36.43
2022-07-29T13:37:09.514Z,36.01
2022-07-29T13:39:36.098Z,36.50
2022-07-29T13:42:02.790Z,37.98
2022-07-29T13:44:29.458Z,36.91
2022-07-29T13:46:56.867Z,37.28
2022-07-29T13:49:23.770Z,37.54
2022-07-29T13:51:50.921Z,35.04
2022-07-29T13:54:17.489Z,33.54
2022-07-29T13:56:44.061Z,32.28
2022-07-29T13:59:13.494Z,31.60
2022-07-29T14:01:43.004Z,31.50
2022-07-29T14:04:10.437Z,31.31
2022-07-29T14:06:40.572Z,31.29
2022-07-29T14:09:09.370Z,31.69
2022-07-29T14:11:36.517Z,31.51
2022-07-29T14:14:03.155Z,31.41
2022-07-29T14:16:29.808Z,31.17
2022-07-29T14:18:56.331Z,31.67
2022-07-29T14:21:22.916Z,31.55
2022-07-29T14:23:49.614Z,31.98
2022-07-29T14:26:21.405Z,31.62
2022-07-29T14:28:50.655Z,31.78
2022-07-29T14:31:17.310Z,31.41
2022-07-29T14:33:43.920Z,31.39
2022-07-29T14:36:13.356Z,31.02
2022-07-29T14:38:41.328Z,30.77
2022-07-29T14:41:08.804Z,30.52
2022-07-29T14:43:35.972Z,29.99
2022-07-29T14:46:08.360Z,29.51
2022-07-29T14:48:35.927Z,29.08
2022-07-29T14:51:04.876Z,28.85
2022-07-29T14:53:32.264Z,28.92
2022-07-29T14:56:15.029Z,28.73
2022-07-29T14:58:51.723Z,28.45
2022-07-29T15:01:18.957Z,27.38
2022-07-29T15:03:45.554Z,26.56
2022-07-29T15:06:12.283Z,26.78
2022-07-29T15:08:38.919Z,26.40
2022-07-29T15:11:05.495Z,26.70
2022-07-29T15:13:32.072Z,26.62
2022-07-29T15:16:00.308Z,26.86
2022-07-29T15:18:27.136Z,27.30
2022-07-29T15:20:53.656Z,27.33
2022-07-29T15:23:20.867Z,27.99
2022-07-29T15:25:47.458Z,27.95
2022-07-29T15:28:14.023Z,28.24
2022-07-29T15:30:43.386Z,28.38
2022-07-29T15:33:10.417Z,27.28
2022-07-29T15:35:40.579Z,27.61
2022-07-29T15:38:08.108Z,26.90
2022-07-29T15:40:34.695Z,27.21
2022-07-29T15:43:06.467Z,27.76
2022-07-29T15:45:40.499Z,27.20
2022-07-29T15:48:09.478Z,27.59
2022-07-29T15:50:36.218Z,27.51
2022-07-29T15:53:03.352Z,26.96
2022-07-29T15:55:29.881Z,26.91
2022-07-29T15:58:00.450Z,26.75
2022-07-29T16:00:27.382Z,27.14
2022-07-29T16:02:53.977Z,27.26
2022-07-29T16:05:20.514Z,26.93
2022-07-29T16:07:47.188Z,26.93
2022-07-29T16:10:13.904Z,26.87
2022-07-29T16:12:40.439Z,26.66
2022-07-29T16:15:11.400Z,26.09
2022-07-29T16:17:38.805Z,25.88
2022-07-29T16:20:06.344Z,25.94
2022-07-29T16:22:32.902Z,25.87
2022-07-29T16:24:59.576Z,25.88
2022-07-29T16:27:35.419Z,26.11
2022-07-29T16:30:05.252Z,26.24
2022-07-29T16:32:32.072Z,25.36
2022-07-29T16:34:58.639Z,25.58
2022-07-29T16:37:25.168Z,25.58
2022-07-29T16:39:55.403Z,25.67
2022-07-29T16:42:44.341Z,25.90
2022-07-29T16:45:09.076Z,25.56
2022-07-29T16:47:36.216Z,25.73
2022-07-29T16:50:03.033Z,25.90
2022-07-29T16:52:29.603Z,25.78
2022-07-29T16:54:56.138Z,25.54
2022-07-29T16:57:22.718Z,25.45
2022-07-29T16:59:50.907Z,25.71
2022-07-29T17:02:17.702Z,25.65
2022-07-29T17:04:44.261Z,25.41
2022-07-29T17:07:10.950Z,25.62
2022-07-29T17:09:37.665Z,25.48
2022-07-29T17:12:04.585Z,25.32
2022-07-29T17:14:31.465Z,24.86
2022-07-29T17:17:01.832Z,24.61
2022-07-29T17:19:31.774Z,24.37
2022-07-29T17:22:06.409Z,24.29
2022-07-29T17:24:35.979Z,24.21
2022-07-29T17:27:02.637Z,24.13
2022-07-29T17:29:29.184Z,24.24
2022-07-29T17:31:55.770Z,24.24
2022-07-29T17:34:22.484Z,24.40
2022-07-29T17:36:49.074Z,24.43
2022-07-29T17:39:15.670Z,24.49
2022-07-29T17:41:42.276Z,24.30
2022-07-29T17:44:09.424Z,24.39
2022-07-29T17:46:36.368Z,24.20
2022-07-29T17:49:06.711Z,24.13
2022-07-29T17:51:33.605Z,24.01
2022-07-29T17:54:00.211Z,23.89
2022-07-29T17:56:27.007Z,23.69
2022-07-29T17:58:54.075Z,23.87
2022-07-29T18:01:20.951Z,23.74
2022-07-29T18:03:47.806Z,23.76
2022-07-29T18:06:14.456Z,23.73
2022-07-29T18:08:41.134Z,23.51
2022-07-29T18:11:07.863Z,23.58
2022-07-29T18:13:34.471Z,23.53
2022-07-29T18:16:01.172Z,23.33
2022-07-29T18:18:27.863Z,23.24
2022-07-29T18:20:54.554Z,22.80
2022-07-29T18:23:21.230Z,21.85
2022-07-29T18:25:47.933Z,21.62
2022-07-29T18:28:14.591Z,21.28
2022-07-29T18:30:41.516Z,20.81
2022-07-29T18:33:22.816Z,20.80
2022-07-29T18:35:51.634Z,21.11
2022-07-29T18:38:18.589Z,20.97
2022-07-29T18:40:45.872Z,20.87
2022-07-29T18:43:13.303Z,21.04
2022-07-29T18:45:39.933Z,21.35
2022-07-29T18:48:08.423Z,20.98
2022-07-29T18:50:39.698Z,20.81
2022-07-29T18:53:06.282Z,20.51
2022-07-29T18:55:32.919Z,20.58
2022-07-29T18:57:59.501Z,20.21
2022-07-29T19:00:26.738Z,20.11
2022-07-29T19:02:53.930Z,19.95
2022-07-29T19:05:21.134Z,19.56
2022-07-29T19:07:47.677Z,19.63
2022-07-29T19:10:14.367Z,19.80
2022-07-29T19:12:40.994Z,19.51
2022-07-29T19:15:08.292Z,19.45
2022-07-29T19:17:34.870Z,19.56
2022-07-29T19:20:01.890Z,19.56
2022-07-29T19:22:28.457Z,19.54
2022-07-29T19:24:54.964Z,19.64
2022-07-29T19:27:21.564Z,19.58
2022-07-29T19:29:48.148Z,19.40
2022-07-29T19:32:24.514Z,18.96
2022-07-29T19:35:10.590Z,18.94
2022-07-29T19:37:37.393Z,18.88
2022-07-29T19:40:05.547Z,19.32
2022-07-29T19:42:32.222Z,19.27
2022-07-29T19:44:58.778Z,19.16
2022-07-29T19:47:25.305Z,19.04
2022-07-29T19:49:51.954Z,19.40
2022-07-29T19:52:18.490Z,19.39
2022-07-29T19:54:45.217Z,19.18
2022-07-29T19:57:11.729Z,19.20
2022-07-29T19:59:38.763Z,19.38
2022-07-29T20:02:05.748Z,19.31
2022-07-29T20:04:32.324Z,19.02
2022-07-29T20:07:01.585Z,19.02
2022-07-29T20:09:28.899Z,19.26
2022-07-29T20:11:55.500Z,19.33
2022-07-29T20:14:22.480Z,19.21
2022-07-29T20:16:50.209Z,19.11
2022-07-29T20:19:17.023Z,19.26
2022-07-29T20:21:44.208Z,19.36
2022-07-29T20:24:11.084Z,19.39
2022-07-29T20:26:38.175Z,19.47
2022-07-29T20:29:05.314Z,19.40
2022-07-29T20:31:32.799Z,19.58
2022-07-29T20:34:00.806Z,19.57
2022-07-29T20:36:28.181Z,19.42
2022-07-29T20:38:55.979Z,19.60
2022-07-29T20:41:22.897Z,19.70
2022-07-29T20:43:50.502Z,19.57
2022-07-29T20:46:17.979Z,19.65
2022-07-29T20:48:45.342Z,19.76
2022-07-29T20:51:12.038Z,19.78
2022-07-29T20:53:39.891Z,19.64
2022-07-29T20:56:07.666Z,19.54
2022-07-29T20:58:36.075Z,19.71
2022-07-29T21:01:03.122Z,19.78
2022-07-29T21:03:29.706Z,19.72
2022-07-29T21:05:56.382Z,19.73
2022-07-29T21:08:22.996Z,19.85
2022-07-29T21:10:49.540Z,19.95
2022-07-29T21:13:16.621Z,20.06
2022-07-29T21:15:46.119Z,20.12
2022-07-29T21:18:30.403Z,19.84
2022-07-29T21:21:00.267Z,19.84
2022-07-29T21:23:27.273Z,19.87
2022-07-29T21:25:54.200Z,20.13
2022-07-29T21:28:26.716Z,19.96
2022-07-29T21:30:54.593Z,19.77
2022-07-29T21:33:21.161Z,19.69
2022-07-29T21:38:35.667Z,19.57
2022-07-29T21:41:03.457Z,19.57
2022-07-29T21:43:30.451Z,19.51
2022-07-29T21:45:58.328Z,19.43
2022-07-29T21:48:26.652Z,19.41
2022-07-29T21:50:53.992Z,19.47
2022-07-29T21:53:22.916Z,19.65
2022-07-29T21:55:50.645Z,19.60
2022-07-29T21:58:18.066Z,19.45
2022-07-29T22:00:45.201Z,19.44
2022-07-29T22:03:12.127Z,19.51
2022-07-29T22:05:38.900Z,19.54
2022-07-29T22:08:05.558Z,19.70
2022-07-29T22:10:33.397Z,19.83
2022-07-29T22:13:00.827Z,19.52
2022-07-29T22:15:28.450Z,19.60
2022-07-29T22:17:55.057Z,19.55
2022-07-29T22:20:21.677Z,19.35
2022-07-29T22:22:48.342Z,19.28
2022-07-29T22:25:15.061Z,19.28
2022-07-29T22:27:41.669Z,19.26
2022-07-29T22:30:08.671Z,19.20
2022-07-29T22:32:36.876Z,19.08
2022-07-29T22:35:03.701Z,18.92
2022-07-29T22:37:30.341Z,19.03
2022-07-29T22:39:57.062Z,19.05
2022-07-29T22:42:23.755Z,19.02
2022-07-29T22:44:50.336Z,19.03
2022-07-29T22:47:16.981Z,19.10
2022-07-29T22:49:43.537Z,19.05
2022-07-29T22:52:10.166Z,18.89
2022-07-29T22:54:38.226Z,18.87
2022-07-29T22:57:05.647Z,18.92
2022-07-29T22:59:32.222Z,18.87
2022-07-29T23:01:59.139Z,18.71
2022-07-29T23:04:25.695Z,18.75
2022-07-29T23:06:52.302Z,18.78
2022-07-29T23:09:18.932Z,18.83
2022-07-29T23:11:46.069Z,18.94
2022-07-29T23:14:12.867Z,19.09
2022-07-29T23:16:39.442Z,19.10
2022-07-29T23:19:05.996Z,19.08
2022-07-29T23:21:32.595Z,19.00
2022-07-29T23:23:59.136Z,19.11
2022-07-29T23:26:25.715Z,19.16
2022-07-29T23:28:52.308Z,19.07
2022-07-29T23:31:18.911Z,18.97
2022-07-29T23:33:45.617Z,18.98
2022-07-29T23:36:12.189Z,19.03
2022-07-29T23:38:40.902Z,19.04
2022-07-29T23:41:09.605Z,19.19
2022-07-29T23:43:39.439Z,19.26
2022-07-29T23:46:06.418Z,19.28
2022-07-29T23:48:33.796Z,19.27
2022-07-29T23:51:01.088Z,19.30
2022-07-29T23:53:28.327Z,19.34
2022-07-29T23:55:55.754Z,19.33
2022-07-29T23:58:22.634Z,19.22
